Time;durP1;ratioP1;P1;durP2;ratioP2;P2;SDS_P1;SDS_P2;PMS_P1;PMS_P2;Temp;Humidity;BMP_temperature;BMP_pressure;BME280_temperature;BME280_humidity;BME280_pressure;Samples;Min_cycle;Max_cycle;Signal;HPM_P1;HPM_P2
2023/11/06 00:01:22;;;;;;;;;;;7.50;90.30;;;;;;5132097;27;19912;-72
2023/11/06 00:03:47;;;;;;;;;;;7.60;90.40;;;;;;5131993;27;19912;-72
2023/11/06 00:06:13;;;;;;;;;;;7.60;90.30;;;;;;5132070;27;20064;-73
2023/11/06 00:08:38;;;;;;;;;;;7.60;90.30;;;;;;5132245;27;19915;-72
2023/11/06 00:11:05;;;;;;;;;;;7.60;90.30;;;;;;5132267;27;19912;-73
2023/11/06 00:13:32;;;;;;;;;;;7.60;90.30;;;;;;5132101;27;19922;-72
2023/11/06 00:15:57;;;;;;;;;;;7.60;90.40;;;;;;5131897;27;19915;-72
2023/11/06 00:18:23;;;;;;;;;;;7.60;90.30;;;;;;5132387;27;19918;-72
2023/11/06 00:20:49;;;;;;;;;;;7.60;90.30;;;;;;5131917;27;19912;-72
2023/11/06 00:23:15;;;;;;;;;;;7.60;90.30;;;;;;5131825;27;19911;-72
2023/11/06 00:25:40;;;;;;;;;;;7.50;90.30;;;;;;5131638;27;19916;-72
2023/11/06 00:28:06;;;;;;;;;;;7.60;90.30;;;;;;5130981;27;19922;-72
2023/11/06 00:30:32;;;;;;;;;;;7.50;90.30;;;;;;5096144;27;19911;-72
2023/11/06 00:32:57;;;;;;;;;;;7.60;90.30;;;;;;5131646;27;19945;-72
2023/11/06 00:35:23;;;;;;;;;;;7.50;90.30;;;;;;5131715;27;19956;-72
2023/11/06 00:37:49;;;;;;;;;;;7.50;90.30;;;;;;5131543;27;19960;-72
2023/11/06 00:40:14;;;;;;;;;;;7.50;90.30;;;;;;5131562;27;20326;-73
2023/11/06 00:42:40;;;;;;;;;;;7.50;90.30;;;;;;5113102;27;19915;-72
2023/11/06 00:45:06;;;;;;;;;;;7.50;90.30;;;;;;5131444;27;19936;-72
2023/11/06 00:47:32;;;;;;;;;;;7.50;90.30;;;;;;5131216;27;19911;-72
2023/11/06 00:49:57;;;;;;;;;;;7.50;90.30;;;;;;5131417;27;19919;-72
2023/11/06 00:52:24;;;;;;;;;;;7.50;90.30;;;;;;5131349;27;19919;-72
2023/11/06 00:54:49;;;;;;;;;;;7.50;90.30;;;;;;5113125;27;19922;-72
2023/11/06 00:57:15;;;;;;;;;;;7.50;90.60;;;;;;5131107;27;19911;-72
2023/11/06 00:59:41;;;;;;;;;;;7.40;90.30;;;;;;5131053;27;20440;-72
2023/11/06 01:02:07;;;;;;;;;;;7.50;90.40;;;;;;5131063;27;19915;-73
2023/11/06 01:04:32;;;;;;;;;;;7.40;90.30;;;;;;5130922;27;19934;-72
2023/11/06 01:06:59;;;;;;;;;;;7.40;90.30;;;;;;5130919;27;19936;-72
2023/11/06 01:09:24;;;;;;;;;;;7.40;90.30;;;;;;5130969;27;19919;-72
2023/11/06 01:11:50;;;;;;;;;;;7.40;90.30;;;;;;5130734;27;19911;-72
2023/11/06 01:14:16;;;;;;;;;;;7.40;90.30;;;;;;5130921;27;19954;-72
2023/11/06 01:16:42;;;;;;;;;;;7.40;90.30;;;;;;5130802;27;19964;-72
2023/11/06 01:19:08;;;;;;;;;;;7.40;90.30;;;;;;5130753;27;19907;-72
2023/11/06 01:21:33;;;;;;;;;;;7.30;90.30;;;;;;5130647;27;20308;-72
2023/11/06 01:23:59;;;;;;;;;;;7.40;90.30;;;;;;5130709;27;19976;-72
2023/11/06 01:26:25;;;;;;;;;;;7.30;90.30;;;;;;5130817;27;19915;-72
2023/11/06 01:28:50;;;;;;;;;;;7.30;90.30;;;;;;5130485;27;19919;-73
2023/11/06 01:31:17;;;;;;;;;;;7.30;90.30;;;;;;5112078;27;19911;-72
2023/11/06 01:33:43;;;;;;;;;;;7.30;90.30;;;;;;5130580;27;19981;-72
2023/11/06 01:36:09;;;;;;;;;;;7.30;90.30;;;;;;5130533;27;19947;-72
2023/11/06 01:38:36;;;;;;;;;;;7.30;90.30;;;;;;5130616;27;19993;-72
2023/11/06 01:41:03;;;;;;;;;;;7.30;90.30;;;;;;5129390;27;20264;-72
2023/11/06 01:43:28;;;;;;;;;;;7.30;90.30;;;;;;5130383;27;20287;-72
2023/11/06 01:45:54;;;;;;;;;;;7.20;90.30;;;;;;5111855;27;19918;-72
2023/11/06 01:48:19;;;;;;;;;;;7.30;90.30;;;;;;5130211;27;20367;-72
2023/11/06 01:50:45;;;;;;;;;;;7.30;90.30;;;;;;5111527;27;19962;-72
2023/11/06 01:53:11;;;;;;;;;;;7.20;90.30;;;;;;5130159;27;19916;-72
2023/11/06 01:55:38;;;;;;;;;;;7.20;90.30;;;;;;5130189;27;19964;-73
2023/11/06 01:58:04;;;;;;;;;;;7.20;90.30;;;;;;5130457;27;19998;-72
2023/11/06 02:00:30;;;;;;;;;;;7.20;90.30;;;;;;5130264;27;20437;-72
2023/11/06 02:02:56;;;;;;;;;;;7.20;90.30;;;;;;5129962;27;19998;-72
2023/11/06 02:05:21;;;;;;;;;;;7.20;90.30;;;;;;5111479;27;20015;-72
2023/11/06 02:07:47;;;;;;;;;;;7.20;90.40;;;;;;5094264;27;20014;-72
2023/11/06 02:10:16;;;;;;;;;;;7.20;90.30;;;;;;5129761;27;19938;-72
2023/11/06 02:12:41;;;;;;;;;;;7.20;90.30;;;;;;5129647;27;19915;-72
2023/11/06 02:15:10;;;;;;;;;;;7.20;90.40;;;;;;5129732;27;19918;-72
2023/11/06 02:17:36;;;;;;;;;;;7.20;90.30;;;;;;5129677;27;19914;-72
2023/11/06 02:20:04;;;;;;;;;;;7.20;90.60;;;;;;5129791;27;19915;-72
2023/11/06 02:22:30;;;;;;;;;;;7.20;90.30;;;;;;5129472;27;19918;-72
2023/11/06 02:24:56;;;;;;;;;;;7.20;90.30;;;;;;5129616;27;19947;-72
2023/11/06 02:27:23;;;;;;;;;;;7.20;90.30;;;;;;5111491;27;20399;-72
2023/11/06 02:29:49;;;;;;;;;;;7.20;90.30;;;;;;5129599;27;19948;-72
2023/11/06 02:32:16;;;;;;;;;;;7.20;90.40;;;;;;5129314;27;19992;-72
2023/11/06 02:34:41;;;;;;;;;;;7.20;90.40;;;;;;5110951;27;19937;-72
2023/11/06 02:37:10;;;;;;;;;;;7.20;90.40;;;;;;5129499;27;19911;-72
2023/11/06 02:39:36;;;;;;;;;;;7.20;90.40;;;;;;5111612;27;19976;-72
2023/11/06 02:42:02;;;;;;;;;;;7.20;90.40;;;;;;5129280;27;20359;-72
2023/11/06 02:44:28;;;;;;;;;;;7.20;90.40;;;;;;5129280;27;19908;-72
2023/11/06 02:46:54;;;;;;;;;;;7.20;90.40;;;;;;5129191;27;19919;-72
2023/11/06 02:49:19;;;;;;;;;;;7.20;90.40;;;;;;5129271;27;19940;-72
2023/11/06 02:51:45;;;;;;;;;;;7.20;90.40;;;;;;5128969;27;19919;-72
2023/11/06 02:54:10;;;;;;;;;;;7.20;90.40;;;;;;5110622;27;20371;-72
2023/11/06 02:56:36;;;;;;;;;;;7.10;90.40;;;;;;5110619;27;19935;-72
2023/11/06 02:59:05;;;;;;;;;;;7.20;90.40;;;;;;5110582;28;19968;-72
2023/11/06 03:01:31;;;;;;;;;;;7.10;90.40;;;;;;5128953;27;19914;-72
2023/11/06 03:03:58;;;;;;;;;;;7.20;90.40;;;;;;5129064;28;19967;-72
2023/11/06 03:06:27;;;;;;;;;;;7.10;90.40;;;;;;5110809;28;19911;-72
2023/11/06 03:08:54;;;;;;;;;;;7.10;90.30;;;;;;5129013;28;20382;-72
2023/11/06 03:11:20;;;;;;;;;;;7.10;90.40;;;;;;5128871;28;19911;-73
2023/11/06 03:13:46;;;;;;;;;;;7.10;90.30;;;;;;5128889;28;19923;-72
2023/11/06 03:16:11;;;;;;;;;;;7.10;90.40;;;;;;5128968;28;20278;-72
2023/11/06 03:18:37;;;;;;;;;;;7.10;90.30;;;;;;5128944;28;19911;-72
2023/11/06 03:21:03;;;;;;;;;;;7.10;90.40;;;;;;5110355;28;19911;-72
2023/11/06 03:23:30;;;;;;;;;;;7.10;90.40;;;;;;5128796;28;19912;-73
2023/11/06 03:25:55;;;;;;;;;;;7.10;90.40;;;;;;5128995;28;20013;-72
2023/11/06 03:28:21;;;;;;;;;;;7.10;90.40;;;;;;5128858;28;19917;-72
2023/11/06 03:30:47;;;;;;;;;;;7.10;90.40;;;;;;5128648;28;20432;-72
2023/11/06 03:33:12;;;;;;;;;;;7.10;90.40;;;;;;5110438;28;19928;-72
2023/11/06 03:35:38;;;;;;;;;;;7.00;90.30;;;;;;5128686;28;19995;-73
2023/11/06 03:38:03;;;;;;;;;;;7.00;90.40;;;;;;5110262;28;20393;-72
2023/11/06 03:40:29;;;;;;;;;;;7.00;90.40;;;;;;5128767;28;19918;-73
2023/11/06 03:42:54;;;;;;;;;;;7.00;90.40;;;;;;5128628;28;19912;-72
2023/11/06 03:45:20;;;;;;;;;;;7.00;90.40;;;;;;5128642;28;19916;-72
2023/11/06 03:47:45;;;;;;;;;;;7.00;90.40;;;;;;5110281;28;19919;-73
2023/11/06 03:50:11;;;;;;;;;;;7.00;90.40;;;;;;5128699;28;19911;-72
2023/11/06 03:52:36;;;;;;;;;;;7.00;90.40;;;;;;5128543;28;20255;-72
2023/11/06 03:55:03;;;;;;;;;;;7.00;90.60;;;;;;5128557;28;19912;-72
2023/11/06 03:57:29;;;;;;;;;;;7.00;90.40;;;;;;5128437;28;19912;-73
2023/11/06 03:59:55;;;;;;;;;;;7.00;90.40;;;;;;5110171;28;19918;-72
2023/11/06 04:02:20;;;;;;;;;;;7.00;90.60;;;;;;5110005;28;20355;-72
2023/11/06 04:04:46;;;;;;;;;;;7.00;90.40;;;;;;5113796;27;19919;-72
2023/11/06 04:07:12;;;;;;;;;;;7.00;90.40;;;;;;5132010;27;19920;-72
2023/11/06 04:09:38;;;;;;;;;;;7.10;90.40;;;;;;5113661;27;19915;-72
2023/11/06 04:12:04;;;;;;;;;;;7.10;90.40;;;;;;5132047;27;19963;-72
2023/11/06 04:14:29;;;;;;;;;;;7.10;90.40;;;;;;5132145;27;19918;-72
2023/11/06 04:16:55;;;;;;;;;;;7.10;90.40;;;;;;5113745;27;20423;-72
2023/11/06 04:19:21;;;;;;;;;;;7.10;90.40;;;;;;5132235;27;20275;-72
2023/11/06 04:21:47;;;;;;;;;;;7.10;90.40;;;;;;5131899;27;19926;-73
2023/11/06 04:24:12;;;;;;;;;;;7.10;90.40;;;;;;5131891;27;19974;-72
2023/11/06 04:26:38;;;;;;;;;;;7.10;90.40;;;;;;5131679;27;19911;-72
2023/11/06 04:29:03;;;;;;;;;;;7.10;90.40;;;;;;5131761;27;19907;-72
2023/11/06 04:31:29;;;;;;;;;;;7.10;90.40;;;;;;5131804;27;19941;-73
2023/11/06 04:33:55;;;;;;;;;;;7.10;90.40;;;;;;5131763;27;19912;-73
2023/11/06 04:36:21;;;;;;;;;;;7.10;90.40;;;;;;5131711;27;19915;-72
2023/11/06 04:38:46;;;;;;;;;;;7.10;90.40;;;;;;5131957;27;20271;-72
2023/11/06 04:41:12;;;;;;;;;;;7.10;90.40;;;;;;5131488;27;19942;-72
2023/11/06 04:43:38;;;;;;;;;;;7.10;90.40;;;;;;5131579;27;20382;-72
2023/11/06 04:46:04;;;;;;;;;;;7.10;90.40;;;;;;5131424;27;19911;-72
2023/11/06 04:48:29;;;;;;;;;;;7.00;90.40;;;;;;5131531;27;20042;-72
2023/11/06 04:50:55;;;;;;;;;;;7.00;90.40;;;;;;5131359;27;20399;-72
2023/11/06 04:53:21;;;;;;;;;;;7.00;90.40;;;;;;5131416;27;19911;-72
2023/11/06 04:55:47;;;;;;;;;;;7.10;90.40;;;;;;5131289;27;19915;-72
2023/11/06 04:58:13;;;;;;;;;;;7.10;90.40;;;;;;5131015;27;19911;-72
2023/11/06 05:00:40;;;;;;;;;;;7.00;90.40;;;;;;5131264;27;19912;-73
2023/11/06 05:03:06;;;;;;;;;;;7.10;90.40;;;;;;5112824;27;19958;-72
2023/11/06 05:05:31;;;;;;;;;;;7.10;90.40;;;;;;5112748;27;20374;-71
2023/11/06 05:07:57;;;;;;;;;;;7.10;90.50;;;;;;5095366;27;20402;-72
2023/11/06 05:10:22;;;;;;;;;;;7.20;90.50;;;;;;5131060;27;19912;-72
2023/11/06 05:12:48;;;;;;;;;;;7.30;90.50;;;;;;5130824;27;19956;-72
2023/11/06 05:15:13;;;;;;;;;;;7.40;90.50;;;;;;5130933;27;19964;-72
2023/11/06 05:17:39;;;;;;;;;;;7.50;90.50;;;;;;5130817;27;19937;-72
2023/11/06 05:20:05;;;;;;;;;;;7.50;90.50;;;;;;5130717;27;19994;-72
2023/11/06 05:22:31;;;;;;;;;;;7.50;90.40;;;;;;5130659;27;19922;-73
2023/11/06 05:24:56;;;;;;;;;;;7.50;90.30;;;;;;5130639;27;20360;-72
2023/11/06 05:27:22;;;;;;;;;;;7.50;90.40;;;;;;5112144;27;19915;-73
2023/11/06 05:29:48;;;;;;;;;;;7.40;90.40;;;;;;5112399;27;20254;-72
2023/11/06 05:32:13;;;;;;;;;;;7.40;90.40;;;;;;5130598;27;20022;-73
2023/11/06 05:34:39;;;;;;;;;;;7.30;90.40;;;;;;5130519;27;19907;-73
2023/11/06 05:37:05;;;;;;;;;;;7.30;90.40;;;;;;5130532;27;19956;-72
2023/11/06 05:39:31;;;;;;;;;;;7.30;90.40;;;;;;5130489;27;19920;-72
2023/11/06 05:41:57;;;;;;;;;;;7.30;90.40;;;;;;5112131;27;20007;-72
2023/11/06 05:44:23;;;;;;;;;;;7.30;90.50;;;;;;5130313;27;20439;-72
2023/11/06 05:46:48;;;;;;;;;;;7.30;90.50;;;;;;5111810;27;19912;-72
2023/11/06 05:49:14;;;;;;;;;;;7.30;90.50;;;;;;5094766;27;19920;-72
2023/11/06 05:51:39;;;;;;;;;;;7.30;90.50;;;;;;5130096;27;19912;-72
2023/11/06 05:54:06;;;;;;;;;;;7.30;90.60;;;;;;5129999;27;19907;-72
2023/11/06 05:56:31;;;;;;;;;;;7.30;90.60;;;;;;5129858;27;19907;-72
2023/11/06 05:58:57;;;;;;;;;;;7.40;90.50;;;;;;5111313;27;19918;-72
2023/11/06 06:01:23;;;;;;;;;;;7.40;90.50;;;;;;5129923;27;19912;-72
2023/11/06 06:03:48;;;;;;;;;;;7.40;90.50;;;;;;5129973;27;20424;-72
2023/11/06 06:06:16;;;;;;;;;;;7.40;90.50;;;;;;5129708;27;19912;-73
2023/11/06 06:08:45;;;;;;;;;;;7.40;90.50;;;;;;5129869;27;19972;-72
2023/11/06 06:11:10;;;;;;;;;;;7.40;90.50;;;;;;5129541;27;19973;-72
2023/11/06 06:13:36;;;;;;;;;;;7.40;90.50;;;;;;5129665;27;19916;-72
2023/11/06 06:16:02;;;;;;;;;;;7.40;90.50;;;;;;5129628;27;19915;-72
2023/11/06 06:18:28;;;;;;;;;;;7.40;90.50;;;;;;5129751;27;20311;-72
2023/11/06 06:20:54;;;;;;;;;;;7.40;90.50;;;;;;5129533;27;19912;-73
2023/11/06 06:23:20;;;;;;;;;;;7.40;90.50;;;;;;5129588;27;20352;-72
2023/11/06 06:25:46;;;;;;;;;;;7.40;90.50;;;;;;5128976;27;19912;-72
2023/11/06 06:28:11;;;;;;;;;;;7.40;90.50;;;;;;5111120;27;19922;-73
2023/11/06 06:30:37;;;;;;;;;;;7.40;90.50;;;;;;5111008;27;20283;-72
2023/11/06 06:33:02;;;;;;;;;;;7.50;90.60;;;;;;5129318;27;20240;-72
2023/11/06 06:35:28;;;;;;;;;;;7.50;90.60;;;;;;5129313;27;19911;-73
2023/11/06 06:37:53;;;;;;;;;;;7.50;90.60;;;;;;5129073;27;20423;-73
2023/11/06 06:40:20;;;;;;;;;;;7.60;90.60;;;;;;5129090;27;19918;-73
2023/11/06 06:42:47;;;;;;;;;;;7.60;90.60;;;;;;5129008;27;19982;-73
2023/11/06 06:45:12;;;;;;;;;;;7.70;90.60;;;;;;5129119;27;19919;-73
2023/11/06 06:47:38;;;;;;;;;;;7.70;90.60;;;;;;5110627;27;19915;-73
2023/11/06 06:50:04;;;;;;;;;;;7.70;90.70;;;;;;5128828;27;20305;-73
2023/11/06 06:52:29;;;;;;;;;;;7.70;90.70;;;;;;5129043;27;19976;-73
2023/11/06 06:54:55;;;;;;;;;;;7.80;90.60;;;;;;5110730;27;19923;-72
2023/11/06 06:57:20;;;;;;;;;;;7.80;90.60;;;;;;5128846;27;20382;-72
2023/11/06 06:59:46;;;;;;;;;;;7.80;90.60;;;;;;5110504;28;19912;-73
2023/11/06 07:02:12;;;;;;;;;;;7.80;90.60;;;;;;5128859;27;19918;-72
2023/11/06 07:04:40;;;;;;;;;;;7.80;90.60;;;;;;5128669;28;19916;-72
2023/11/06 07:07:06;;;;;;;;;;;7.80;90.60;;;;;;5128619;28;20016;-72
2023/11/06 07:09:31;;;;;;;;;;;7.80;90.60;;;;;;5110199;28;19919;-72
2023/11/06 07:11:57;;;;;;;;;;;7.90;90.70;;;;;;5110331;28;20279;-72
2023/11/06 07:14:24;;;;;;;;;;;8.00;90.70;;;;;;5128727;28;20286;-72
2023/11/06 07:16:50;;;;;;;;;;;8.00;90.60;;;;;;5128780;28;19916;-72
2023/11/06 07:19:17;;;;;;;;;;;8.10;90.60;;;;;;5128834;28;19915;-71
2023/11/06 07:21:43;;;;;;;;;;;8.20;90.60;;;;;;5128614;28;20053;-71
2023/11/06 07:24:09;;;;;;;;;;;8.20;90.60;;;;;;5110201;28;19969;-72
2023/11/06 07:26:35;;;;;;;;;;;8.20;90.60;;;;;;5128688;28;20381;-72
2023/11/06 07:29:00;;;;;;;;;;;8.20;90.50;;;;;;5109534;28;19916;-72
2023/11/06 07:31:26;;;;;;;;;;;8.30;90.60;;;;;;5128585;28;19912;-72
2023/11/06 07:33:52;;;;;;;;;;;8.30;90.50;;;;;;5128541;28;19915;-72
2023/11/06 07:36:17;;;;;;;;;;;8.30;90.50;;;;;;5128476;28;20037;-72
2023/11/06 07:38:43;;;;;;;;;;;8.30;90.50;;;;;;5130696;27;19916;-72
2023/11/06 07:41:12;;;;;;;;;;;8.40;90.60;;;;;;5113443;27;19918;-72
2023/11/06 07:43:40;;;;;;;;;;;8.40;90.60;;;;;;5114134;27;19911;-72
2023/11/06 07:46:06;;;;;;;;;;;8.50;90.70;;;;;;5132570;27;19915;-72
2023/11/06 07:48:31;;;;;;;;;;;8.60;90.70;;;;;;5132434;27;19919;-72
2023/11/06 07:50:57;;;;;;;;;;;8.70;90.70;;;;;;5132689;27;20291;-72
2023/11/06 07:53:23;;;;;;;;;;;8.70;90.70;;;;;;5131769;27;19922;-72
2023/11/06 07:55:48;;;;;;;;;;;8.80;90.60;;;;;;5132361;27;20056;-73
2023/11/06 07:58:14;;;;;;;;;;;8.80;90.60;;;;;;5131911;27;20304;-72
2023/11/06 08:00:40;;;;;;;;;;;8.80;90.60;;;;;;5131481;27;19921;-73
2023/11/06 08:03:06;;;;;;;;;;;8.80;90.60;;;;;;5131762;27;20209;-73
2023/11/06 08:05:31;;;;;;;;;;;8.80;90.60;;;;;;5132314;27;19951;-71
2023/11/06 08:07:57;;;;;;;;;;;8.80;90.60;;;;;;5131719;27;19930;-72
2023/11/06 08:10:27;;;;;;;;;;;8.80;90.60;;;;;;5131797;27;19953;-72
2023/11/06 08:12:53;;;;;;;;;;;8.80;90.60;;;;;;5131774;27;20241;-72
2023/11/06 08:15:19;;;;;;;;;;;8.90;90.60;;;;;;5131535;27;19915;-72
2023/11/06 08:17:45;;;;;;;;;;;8.90;90.60;;;;;;5113358;27;19930;-72
2023/11/06 08:20:11;;;;;;;;;;;8.80;90.60;;;;;;5130909;27;19911;-72
2023/11/06 08:22:37;;;;;;;;;;;8.90;90.60;;;;;;5131822;27;19912;-72
2023/11/06 08:25:02;;;;;;;;;;;9.00;90.70;;;;;;5131769;27;20393;-73
2023/11/06 08:27:28;;;;;;;;;;;9.00;90.70;;;;;;5131241;27;19922;-72
2023/11/06 08:29:55;;;;;;;;;;;9.00;90.70;;;;;;5131205;27;19927;-72
2023/11/06 08:32:20;;;;;;;;;;;9.00;90.70;;;;;;5112883;27;20375;-72
2023/11/06 08:34:47;;;;;;;;;;;9.10;90.70;;;;;;5130842;27;19918;-73
2023/11/06 08:37:13;;;;;;;;;;;9.20;90.80;;;;;;5112428;27;19918;-72
2023/11/06 08:39:45;;;;;;;;;;;9.30;90.80;;;;;;5111996;27;20367;-73
2023/11/06 08:42:11;;;;;;;;;;;9.50;90.90;;;;;;5130345;27;20277;-73
2023/11/06 08:44:37;;;;;;;;;;;9.60;90.80;;;;;;5130588;27;20010;-73
2023/11/06 08:47:03;;;;;;;;;;;9.70;90.80;;;;;;5111949;27;20373;-72
2023/11/06 08:49:28;;;;;;;;;;;9.80;90.80;;;;;;5130380;27;19915;-73
2023/11/06 08:51:54;;;;;;;;;;;9.90;90.80;;;;;;5130511;27;19908;-72
2023/11/06 08:54:20;;;;;;;;;;;10.00;90.80;;;;;;5130988;27;19911;-72
2023/11/06 08:56:45;;;;;;;;;;;10.00;90.80;;;;;;5108675;27;19916;-73
2023/11/06 08:59:12;;;;;;;;;;;10.10;90.80;;;;;;5070060;27;19916;-73
2023/11/06 09:01:38;;;;;;;;;;;10.20;90.90;;;;;;5095487;28;20022;-77
2023/11/06 09:04:06;;;;;;;;;;;10.30;90.90;;;;;;5110917;28;19931;-77
2023/11/06 09:06:32;;;;;;;;;;;10.40;90.90;;;;;;5107748;28;20283;-78
2023/11/06 09:08:58;;;;;;;;;;;10.60;90.90;;;;;;5091344;28;19916;-78
2023/11/06 09:11:24;;;;;;;;;;;10.80;91.00;;;;;;5111510;28;19908;-78
2023/11/06 09:13:49;;;;;;;;;;;11.00;90.90;;;;;;5107310;28;20271;-76
2023/11/06 09:16:15;;;;;;;;;;;11.30;91.10;;;;;;5106734;28;19918;-78
2023/11/06 09:18:41;;;;;;;;;;;11.50;91.10;;;;;;5111030;28;19908;-78
2023/11/06 09:21:12;;;;;;;;;;;11.80;91.10;;;;;;5111649;28;19912;-76
2023/11/06 09:23:37;;;;;;;;;;;12.00;91.00;;;;;;5108279;28;19961;-77
2023/11/06 09:26:03;;;;;;;;;;;12.10;90.80;;;;;;5111183;28;20290;-76
2023/11/06 09:28:29;;;;;;;;;;;12.10;90.80;;;;;;5110774;28;20364;-76
2023/11/06 09:30:55;;;;;;;;;;;12.20;91.00;;;;;;5092829;28;19915;-76
2023/11/06 09:33:20;;;;;;;;;;;12.30;90.90;;;;;;5074954;28;20290;-78
2023/11/06 09:35:46;;;;;;;;;;;12.30;90.90;;;;;;5110928;28;20074;-76
2023/11/06 09:38:11;;;;;;;;;;;12.40;90.90;;;;;;5092598;28;19930;-77
2023/11/06 09:40:37;;;;;;;;;;;12.40;90.90;;;;;;5110851;28;19915;-78
2023/11/06 09:43:03;;;;;;;;;;;12.60;91.00;;;;;;5110386;28;19945;-77
2023/11/06 09:45:29;;;;;;;;;;;12.90;91.20;;;;;;5118716;27;20016;-78
2023/11/06 09:47:58;;;;;;;;;;;13.00;91.00;;;;;;5109747;28;20307;-78
2023/11/06 09:50:23;;;;;;;;;;;13.20;91.20;;;;;;5110465;28;19939;-77
2023/11/06 09:52:51;;;;;;;;;;;13.70;91.60;;;;;;5110633;28;20190;-80
2023/11/06 09:55:20;;;;;;;;;;;14.00;91.30;;;;;;5111396;28;19908;-80
2023/11/06 09:57:48;;;;;;;;;;;13.90;90.90;;;;;;5111795;28;19923;-80
2023/11/06 10:00:16;;;;;;;;;;;13.80;90.90;;;;;;5110882;28;19926;-80
2023/11/06 10:02:42;;;;;;;;;;;13.70;91.00;;;;;;5110150;28;20296;-80
2023/11/06 10:05:15;;;;;;;;;;;13.70;90.90;;;;;;5111187;28;20456;-81
2023/11/06 10:07:41;;;;;;;;;;;13.50;90.80;;;;;;5108666;28;19927;-81
2023/11/06 10:10:10;;;;;;;;;;;13.40;90.90;;;;;;5091009;28;19916;-80
2023/11/06 10:12:36;;;;;;;;;;;13.40;91.20;;;;;;5088815;28;19957;-67
2023/11/06 10:15:06;;;;;;;;;;;13.50;91.40;;;;;;5088801;28;20003;-80
2023/11/06 10:17:33;;;;;;;;;;;13.70;91.30;;;;;;5088457;28;19954;-79
2023/11/06 10:20:00;;;;;;;;;;;13.90;91.50;;;;;;5070625;28;19965;-80
2023/11/06 10:22:27;;;;;;;;;;;14.20;91.70;;;;;;5087601;28;19908;-80
2023/11/06 10:24:53;;;;;;;;;;;14.60;91.80;;;;;;5069381;28;19934;-80
2023/11/06 10:27:23;;;;;;;;;;;15.00;91.80;;;;;;5052355;28;20371;-79
2023/11/06 10:30:10;;;;;;;;;;;15.40;91.90;;;;;;5086604;28;19908;-80
2023/11/06 10:32:36;;;;;;;;;;;15.90;92.00;;;;;;5086133;28;20010;-80
2023/11/06 10:35:10;;;;;;;;;;;16.50;92.10;;;;;;5086212;28;19942;-81
2023/11/06 10:37:38;;;;;;;;;;;17.20;92.20;;;;;;5086293;28;19991;-79
2023/11/06 10:40:06;;;;;;;;;;;17.80;92.10;;;;;;5068608;28;19935;-80
2023/11/06 10:42:32;;;;;;;;;;;18.40;92.10;;;;;;5087030;28;19912;-80
2023/11/06 10:44:58;;;;;;;;;;;19.00;92.20;;;;;;5087743;28;20327;-79
2023/11/06 10:47:25;;;;;;;;;;;19.50;92.20;;;;;;5087053;28;19912;-79
2023/11/06 10:49:53;;;;;;;;;;;20.10;92.30;;;;;;5086985;28;19979;-78
2023/11/06 10:52:19;;;;;;;;;;;20.00;91.40;;;;;;5087864;28;19953;-80
2023/11/06 10:54:47;;;;;;;;;;;19.60;91.60;;;;;;5087578;28;19938;-78
2023/11/06 10:57:16;;;;;;;;;;;19.20;91.00;;;;;;5069500;28;20148;-79
2023/11/06 10:59:41;;;;;;;;;;;18.90;91.70;;;;;;5087724;28;20240;-79
2023/11/06 11:02:09;;;;;;;;;;;18.90;91.90;;;;;;5087915;28;19932;-79
2023/11/06 11:04:35;;;;;;;;;;;19.00;92.20;;;;;;5087248;28;20459;-80
2023/11/06 11:07:03;;;;;;;;;;;19.40;92.30;;;;;;5086919;28;19920;-80
2023/11/06 11:09:30;;;;;;;;;;;19.50;92.10;;;;;;5105712;28;19911;-79
2023/11/06 11:11:56;;;;;;;;;;;19.60;92.10;;;;;;5103041;28;20010;-79
2023/11/06 11:14:22;;;;;;;;;;;19.60;92.10;;;;;;5083860;28;19919;-79
2023/11/06 11:16:52;;;;;;;;;;;19.80;92.20;;;;;;5113750;28;19911;-79
2023/11/06 11:19:27;;;;;;;;;;;19.90;92.30;;;;;;5096554;28;19918;-80
2023/11/06 11:22:00;;;;;;;;;;;20.00;92.20;;;;;;5097329;28;19948;-80
2023/11/06 11:24:49;;;;;;;;;;;20.10;92.00;;;;;;5113029;28;20421;-80
2023/11/06 11:27:16;;;;;;;;;;;20.20;92.10;;;;;;5112156;28;19983;-80
2023/11/06 11:29:54;;;;;;;;;;;20.40;92.20;;;;;;5114265;28;19974;-80
2023/11/06 11:32:47;;;;;;;;;;;20.50;92.10;;;;;;5095662;28;19933;-78
2023/11/06 11:35:19;;;;;;;;;;;20.70;92.30;;;;;;5116039;27;20351;-77
2023/11/06 11:37:56;;;;;;;;;;;20.90;92.20;;;;;;5127620;27;19916;-77
2023/11/06 11:40:22;;;;;;;;;;;21.10;92.40;;;;;;5126995;27;19918;-76
2023/11/06 11:42:48;;;;;;;;;;;21.40;92.50;;;;;;5131421;27;20340;-77
2023/11/06 11:45:30;;;;;;;;;;;21.60;92.40;;;;;;5122456;27;20224;-76
2023/11/06 11:47:55;;;;;;;;;;;21.80;92.40;;;;;;5125751;27;20375;-72
2023/11/06 11:50:27;;;;;;;;;;;22.00;92.40;;;;;;5120442;27;19908;-77
2023/11/06 11:52:53;;;;;;;;;;;22.10;92.30;;;;;;5123133;27;19907;-77
2023/11/06 11:55:31;;;;;;;;;;;22.00;92.10;;;;;;5113115;27;19965;-77
2023/11/06 11:58:04;;;;;;;;;;;21.90;92.30;;;;;;5113628;28;19994;-76
2023/11/06 12:00:37;;;;;;;;;;;21.90;92.30;;;;;;5112561;28;19915;-78
2023/11/06 12:03:07;;;;;;;;;;;21.70;92.10;;;;;;5112547;28;20318;-78
2023/11/06 12:05:32;;;;;;;;;;;21.20;91.70;;;;;;5112555;28;19912;-78
2023/11/06 12:07:58;;;;;;;;;;;20.30;91.20;;;;;;5093608;28;20216;-77
2023/11/06 12:10:27;;;;;;;;;;;19.50;91.20;;;;;;5112137;28;20340;-76
2023/11/06 12:12:54;;;;;;;;;;;18.70;91.10;;;;;;5109004;28;19908;-78
2023/11/06 12:15:28;;;;;;;;;;;17.80;91.20;;;;;;5111876;28;19915;-78
2023/11/06 12:17:54;;;;;;;;;;;17.50;92.00;;;;;;5111248;28;19964;-70
2023/11/06 12:20:19;;;;;;;;;;;17.50;92.40;;;;;;5111309;28;20279;-79
2023/11/06 12:22:48;;;;;;;;;;;17.60;92.50;;;;;;5112651;28;19985;-78
2023/11/06 12:25:16;;;;;;;;;;;17.50;92.10;;;;;;5112179;28;19938;-77
2023/11/06 12:27:42;;;;;;;;;;;17.30;91.90;;;;;;5113319;28;19923;-80
2023/11/06 12:30:08;;;;;;;;;;;17.10;91.80;;;;;;5113897;28;19907;-79
2023/11/06 12:32:38;;;;;;;;;;;16.90;91.70;;;;;;5112201;28;20402;-81
2023/11/06 12:35:06;;;;;;;;;;;16.60;91.60;;;;;;5112016;28;19962;-80
2023/11/06 12:37:51;;;;;;;;;;;16.30;91.30;;;;;;5112217;28;19908;-80
2023/11/06 12:40:18;;;;;;;;;;;15.90;91.20;;;;;;5093783;28;20419;-77
2023/11/06 12:42:47;;;;;;;;;;;15.60;91.30;;;;;;5111996;28;20363;-75
2023/11/06 12:45:25;;;;;;;;;;;15.30;91.30;;;;;;5111298;28;19918;-74
2023/11/06 12:47:52;;;;;;;;;;;15.20;91.40;;;;;;5093251;28;20232;-74
2023/11/06 12:50:18;;;;;;;;;;;15.00;91.40;;;;;;5111530;28;19912;-75
2023/11/06 12:52:43;;;;;;;;;;;14.90;91.50;;;;;;5093077;28;20287;-75
2023/11/06 12:55:10;;;;;;;;;;;14.80;91.40;;;;;;5092775;28;19911;-74
2023/11/06 12:57:37;;;;;;;;;;;14.90;91.60;;;;;;5110911;28;19912;-75
2023/11/06 13:00:05;;;;;;;;;;;14.80;91.50;;;;;;5092816;28;20002;-73
2023/11/06 13:02:33;;;;;;;;;;;14.80;91.40;;;;;;5075765;28;19912;-74
2023/11/06 13:04:59;;;;;;;;;;;14.70;91.40;;;;;;5110936;28;20027;-74
2023/11/06 13:07:25;;;;;;;;;;;14.60;91.30;;;;;;5110355;28;20286;-75
2023/11/06 13:09:51;;;;;;;;;;;14.60;91.40;;;;;;5110536;28;19908;-73
2023/11/06 13:12:16;;;;;;;;;;;14.50;91.30;;;;;;5091854;28;20364;-74
2023/11/06 13:14:42;;;;;;;;;;;14.50;91.50;;;;;;5110633;28;20260;-73
2023/11/06 13:17:07;;;;;;;;;;;14.60;91.40;;;;;;5110715;28;19912;-75
2023/11/06 13:19:33;;;;;;;;;;;14.60;91.40;;;;;;5110800;28;19920;-76
2023/11/06 13:21:59;;;;;;;;;;;14.70;91.40;;;;;;5110688;28;19912;-75
2023/11/06 13:24:28;;;;;;;;;;;14.60;91.20;;;;;;5092324;28;20004;-73
2023/11/06 13:26:54;;;;;;;;;;;14.70;91.60;;;;;;5110201;28;19912;-75
2023/11/06 13:29:20;;;;;;;;;;;15.00;91.90;;;;;;5091742;28;20022;-75
2023/11/06 13:31:45;;;;;;;;;;;15.20;91.80;;;;;;5111057;28;19963;-74
2023/11/06 13:34:12;;;;;;;;;;;15.30;91.70;;;;;;5109846;28;19908;-74
2023/11/06 13:36:42;;;;;;;;;;;15.40;91.80;;;;;;5110162;28;19953;-73
2023/11/06 13:39:12;;;;;;;;;;;15.60;91.90;;;;;;5109373;28;19912;-73
2023/11/06 13:41:39;;;;;;;;;;;15.80;92.00;;;;;;5075161;28;19955;-73
2023/11/06 13:44:09;;;;;;;;;;;15.90;92.00;;;;;;5110231;28;19923;-73
2023/11/06 13:46:34;;;;;;;;;;;15.90;91.90;;;;;;5109986;28;19947;-72
2023/11/06 13:49:00;;;;;;;;;;;15.80;91.80;;;;;;5090642;28;19973;-71
2023/11/06 13:51:26;;;;;;;;;;;15.90;91.90;;;;;;5109015;28;20002;-73
2023/11/06 13:53:51;;;;;;;;;;;15.80;91.60;;;;;;5110026;28;19943;-74
2023/11/06 13:56:29;;;;;;;;;;;15.60;91.50;;;;;;5091908;28;19912;-73
2023/11/06 13:58:55;;;;;;;;;;;15.40;91.20;;;;;;5109951;28;19915;-72
2023/11/06 14:01:31;;;;;;;;;;;15.20;91.30;;;;;;5109584;28;19912;-72
2023/11/06 14:03:57;;;;;;;;;;;15.00;91.30;;;;;;5091613;28;19915;-72
2023/11/06 14:06:24;;;;;;;;;;;14.90;91.20;;;;;;5091473;28;19912;-74
2023/11/06 14:08:55;;;;;;;;;;;14.70;91.20;;;;;;5109727;28;20271;-73
2023/11/06 14:11:24;;;;;;;;;;;14.70;91.30;;;;;;5092097;28;19943;-74
2023/11/06 14:13:49;;;;;;;;;;;14.60;91.20;;;;;;5109460;28;19916;-71
2023/11/06 14:16:15;;;;;;;;;;;14.60;91.30;;;;;;5109499;28;19922;-73
2023/11/06 14:18:40;;;;;;;;;;;14.70;91.40;;;;;;5109512;28;19912;-76
2023/11/06 14:21:07;;;;;;;;;;;14.70;91.30;;;;;;5091680;28;19940;-75
2023/11/06 14:23:33;;;;;;;;;;;14.70;91.20;;;;;;5091938;28;19951;-75